DW5406 Weather Reports


time (UTC)temp
F
wind
direction
speed
knots
gust
knots
rain 1hr
in
rain 24hr
in
rain mn
in
humidity
%
barometer
mb
20191023160512 58 176 0.0 0.0 0.00 0.00 0.00 88 1012.2
20191023152013 58 176 0.0 0.9 0.00 0.00 0.00 88 1012.5
20191023150512 58 293 0.0 0.0 0.00 0.00 0.00 89 1012.7
20191023145011 57 293 0.0 0.0 0.00 0.00 0.00 89 1013.2
20191023143511 57 293 0.0 0.0 0.00 0.00 0.00 89 1013.2
20191023142012 57 293 0.0 0.0 0.00 0.00 0.00 88 1013.4
20191023140512 56 293 0.0 0.0 0.00 0.00 0.00 88 1013.6
20191023135012 56 294 0.0 0.9 0.00 0.00 0.00 88 1013.6
20191023133512 56 291 0.0 0.0 0.00 0.00 0.00 88 1013.9
20191023122012 55 360 0.0 0.0 0.00 0.00 0.00 89 1015.0
20191023102012 53 360 0.0 0.0 0.00 0.00 0.00 91 1016.2
20191023100511 53 360 0.0 0.0 0.00 0.00 0.00 92 1016.3
20191023093512 52 360 0.0 0.0 0.00 0.00 0.00 93 1016.6
20191023092012 51 360 0.0 0.0 0.00 0.00 0.00 94 1016.8
20191023082011 49 360 0.0 0.0 0.00 0.00 0.00 95 1017.3
20191023080511 49 360 0.0 0.0 0.00 0.00 0.00 95 1017.4
20191023073512 48 360 0.0 0.0 0.00 0.00 0.00 95 1017.8
20191023072012 47 360 0.0 0.0 0.00 0.00 0.00 95 1018.0
20191023070512 47 360 0.0 0.0 0.00 0.00 0.00 95 1017.9
20191023065012 46 360 0.0 0.0 0.00 0.00 0.00 95 1017.9
20191023063511 46 360 0.0 0.9 0.00 0.00 0.00 94 1017.6
20191023060511 46 355 0.0 0.0 0.00 0.00 0.00 94 1017.3
20191023055012 46 355 0.0 0.0 0.00 0.00 0.00 94 1017.4
20191023053512 46 355 0.0 0.0 0.00 0.00 0.00 94 1017.3
20191023052012 46 350 0.0 0.0 0.00 0.00 0.00 94 1017.3
20191023050511 46 350 0.0 0.0 0.00 0.00 0.00 94 1017.4
20191023043511 47 350 0.0 0.0 0.00 0.00 0.00 94 1017.8
20191023042010 47 350 0.0 0.9 0.00 0.00 0.00 94 1018.0
20191023040511 47 350 0.0 0.9 0.00 0.00 0.00 93 1018.2
20191023035017 47 350 0.0 0.0 0.00 0.00 0.00 94 1018.4
20191023032011 47 349 0.0 0.9 0.00 0.00 0.00 93 1018.7
20191023025011 47 344 0.0 1.7 0.00 0.00 0.00 93 1018.9
20191023023511 48 344 0.0 1.7 0.00 0.00 0.00 93 1019.1
20191023020512 48 12 0.0 0.0 0.00 0.00 0.00 93 1019.4
20191023012011 48 28 0.0 0.9 0.00 0.00 0.00 93 1020.1
20191023010512 48 29 0.0 0.0 0.00 0.00 0.00 93 1020.3
20191023005011 48 336 0.0 3.5 0.00 0.00 0.00 93 1020.3
20191023003512 48 301 0.0 0.0 0.00 0.00 0.00 93 1020.3
20191023002012 48 296 0.0 2.6 0.00 0.00 0.00 93 1020.5
20191023000512 49 291 0.0 0.0 0.00 0.00 0.00 93 1020.6
20191022235011 49 287 0.0 0.0 0.00 0.00 0.00 93 1020.8
20191022233511 49 5 0.0 0.9 0.00 0.00 0.00 93 1020.8
20191022232011 49 17 0.0 0.0 0.00 0.00 0.00 93 1021.0
20191022230512 49 17 0.0 0.9 0.00 0.00 0.00 93 1021.0
20191022223511 49 306 0.0 0.0 0.00 0.00 0.00 93 1021.6
20191022222011 49 306 0.0 0.0 0.00 0.00 0.00 93 1021.5
20191022220511 49 306 0.0 0.0 0.00 0.00 0.00 93 1021.7
20191022215011 50 306 0.0 0.0 0.00 0.00 0.00 93 1021.9
20191022213511 50 306 0.0 0.0 0.00 0.00 0.00 93 1021.9
20191022203513 49 288 0.0 0.0 0.00 0.00 0.00 93 1021.9
20191022202014 49 288 0.0 0.0 0.00 0.00 0.00 93 1021.8
20191022195011 49 285 0.0 0.0 0.00 0.00 0.00 91 1021.8
20191022183511 51 285 0.0 0.0 0.00 0.00 0.00 89 1022.2
20191022173511 53 285 0.0 0.0 0.00 0.00 0.00 86 1022.2
20191022172011 54 285 0.0 0.0 0.00 0.00 0.00 84 1021.9
20191022163511 57 285 0.0 0.0 0.00 0.00 0.00 79 1021.4